createdAt,value
2023-02-09T00:01:18.834Z,13.52
2023-02-09T00:03:46.609Z,16.40
2023-02-09T00:06:17.382Z,12.52
2023-02-09T00:08:45.578Z,13.00
2023-02-09T00:11:20.451Z,15.35
2023-02-09T00:13:47.774Z,13.68
2023-02-09T00:16:15.229Z,12.80
2023-02-09T00:18:42.626Z,13.68
2023-02-09T00:21:11.561Z,13.70
2023-02-09T00:23:40.996Z,16.65
2023-02-09T00:26:11.622Z,12.48
2023-02-09T00:31:11.812Z,14.50
2023-02-09T00:33:41.000Z,13.75
2023-02-09T00:36:12.257Z,18.83
2023-02-09T00:38:40.317Z,15.75
2023-02-09T00:41:07.893Z,13.98
2023-02-09T00:43:35.824Z,15.32
2023-02-09T00:46:03.761Z,13.18
2023-02-09T00:48:31.347Z,14.80
2023-02-09T00:50:59.077Z,14.93
2023-02-09T00:53:26.695Z,14.07
2023-02-09T00:55:54.226Z,13.27
2023-02-09T00:58:21.544Z,13.77
2023-02-09T01:00:50.620Z,13.57
2023-02-09T01:03:19.103Z,13.65
2023-02-09T01:05:46.779Z,12.57
2023-02-09T01:08:14.109Z,15.02
2023-02-09T01:10:41.453Z,14.52
2023-02-09T01:13:08.827Z,13.38
2023-02-09T01:15:38.931Z,12.13
2023-02-09T01:18:07.710Z,14.88
2023-02-09T01:20:35.654Z,16.35
2023-02-09T01:23:03.122Z,12.82
2023-02-09T01:25:31.297Z,12.68
2023-02-09T01:27:59.183Z,16.13
2023-02-09T01:30:27.530Z,13.93
2023-02-09T01:32:55.813Z,14.63
2023-02-09T01:35:23.233Z,14.88
2023-02-09T01:37:50.596Z,13.60
2023-02-09T01:40:17.944Z,10.23
2023-02-09T01:42:45.260Z,13.05
2023-02-09T01:45:22.299Z,13.32
2023-02-09T01:48:01.670Z,12.38
2023-02-09T01:50:33.111Z,13.02
2023-02-09T01:53:00.921Z,13.65
2023-02-09T01:55:31.342Z,11.93
2023-02-09T01:58:03.182Z,13.20
2023-02-09T02:00:30.612Z,12.80
2023-02-09T02:03:05.796Z,12.05
2023-02-09T02:05:37.260Z,12.40
2023-02-09T02:08:24.464Z,14.23
2023-02-09T02:10:53.582Z,11.70
2023-02-09T02:13:21.610Z,12.55
2023-02-09T02:16:04.463Z,13.05
2023-02-09T02:18:57.248Z,12.77
2023-02-09T02:21:49.701Z,12.48
2023-02-09T02:24:53.753Z,14.85
2023-02-09T02:27:52.508Z,13.52
2023-02-09T02:30:40.832Z,12.95
2023-02-09T02:33:40.593Z,12.95
2023-02-09T02:36:17.498Z,13.00
2023-02-09T02:39:09.021Z,14.60
2023-02-09T02:42:17.998Z,14.30
2023-02-09T02:44:59.713Z,14.73
2023-02-09T02:47:30.902Z,12.00
2023-02-09T02:50:05.967Z,14.68
2023-02-09T02:52:33.337Z,13.35
2023-02-09T02:55:09.966Z,14.50
2023-02-09T02:57:40.465Z,13.82
2023-02-09T03:00:15.912Z,14.55
2023-02-09T03:02:53.639Z,14.60
2023-02-09T03:05:23.846Z,13.88
2023-02-09T03:07:51.490Z,12.85
2023-02-09T03:10:30.582Z,14.88
2023-02-09T03:13:35.540Z,12.80
2023-02-09T03:16:18.054Z,13.43
2023-02-09T03:18:45.566Z,13.30
2023-02-09T03:21:29.456Z,14.65
2023-02-09T03:24:16.776Z,14.37
2023-02-09T03:26:55.793Z,13.82
2023-02-09T03:29:25.409Z,13.80
2023-02-09T03:31:53.649Z,12.25
2023-02-09T03:34:21.115Z,16.13
2023-02-09T03:36:56.496Z,13.80
2023-02-09T03:39:24.027Z,13.77
2023-02-09T03:41:51.365Z,15.85
2023-02-09T03:44:27.514Z,11.60
2023-02-09T03:46:56.005Z,12.65
2023-02-09T03:49:24.321Z,11.13
2023-02-09T03:51:51.693Z,13.27
2023-02-09T03:54:19.217Z,14.38
2023-02-09T03:56:46.722Z,10.60
2023-02-09T03:59:13.916Z,13.48
2023-02-09T04:01:41.228Z,15.43
2023-02-09T04:04:08.896Z,12.27
2023-02-09T04:06:36.364Z,13.25
2023-02-09T04:09:05.351Z,12.45
2023-02-09T04:11:32.889Z,12.38
2023-02-09T04:14:00.187Z,11.15
2023-02-09T04:16:27.459Z,11.90
2023-02-09T04:18:54.985Z,11.32
2023-02-09T04:21:22.695Z,10.73
2023-02-09T04:23:50.773Z,10.07
2023-02-09T04:26:18.170Z,11.52
2023-02-09T04:28:45.486Z,12.70
2023-02-09T04:31:13.267Z,10.77
2023-02-09T04:33:40.520Z,10.27
2023-02-09T04:36:08.517Z,10.02
2023-02-09T04:38:36.389Z,11.70
2023-02-09T04:41:04.485Z,11.40
2023-02-09T04:43:32.961Z,11.23
2023-02-09T04:46:01.184Z,10.60
2023-02-09T04:48:30.220Z,11.32
2023-02-09T04:50:57.673Z,10.43
2023-02-09T04:53:25.340Z,11.52
2023-02-09T04:55:53.137Z,9.77
2023-02-09T04:58:40.470Z,10.07
2023-02-09T05:01:09.132Z,12.00
2023-02-09T05:03:36.511Z,9.65
2023-02-09T05:06:06.008Z,12.10
2023-02-09T05:08:33.361Z,10.43
2023-02-09T05:11:01.134Z,10.98
2023-02-09T05:13:28.998Z,10.45
2023-02-09T05:15:56.241Z,9.52
2023-02-09T05:18:24.868Z,10.88
2023-02-09T05:20:52.576Z,10.73
2023-02-09T05:23:20.168Z,10.38
2023-02-09T05:25:48.473Z,11.65
2023-02-09T05:28:16.553Z,10.48
2023-02-09T05:30:44.621Z,11.43
2023-02-09T05:33:12.401Z,10.95
2023-02-09T05:35:40.915Z,11.25
2023-02-09T05:38:08.244Z,11.50
2023-02-09T05:40:35.494Z,10.60
2023-02-09T05:43:03.499Z,9.77
2023-02-09T05:45:31.028Z,10.02
2023-02-09T05:47:58.359Z,10.57
2023-02-09T05:50:25.658Z,10.68
2023-02-09T05:52:56.601Z,10.80
2023-02-09T05:55:23.831Z,10.52
2023-02-09T05:57:51.091Z,11.15
2023-02-09T06:00:18.838Z,10.75
2023-02-09T06:02:46.440Z,10.40
2023-02-09T06:05:13.803Z,9.85
2023-02-09T06:07:41.135Z,10.52
2023-02-09T06:10:08.857Z,11.65
2023-02-09T06:12:36.311Z,11.15
2023-02-09T06:15:04.106Z,9.93
2023-02-09T06:17:31.341Z,11.20
2023-02-09T06:19:58.672Z,11.00
2023-02-09T06:22:26.218Z,11.25
2023-02-09T06:24:53.581Z,9.43
2023-02-09T06:27:20.879Z,10.45
2023-02-09T06:29:48.069Z,10.80
2023-02-09T06:32:15.365Z,11.88
2023-02-09T06:34:42.637Z,10.40
2023-02-09T06:37:10.113Z,12.02
2023-02-09T06:39:37.439Z,10.35
2023-02-09T06:42:04.843Z,8.63
2023-02-09T06:44:32.079Z,10.50
2023-02-09T06:46:59.346Z,9.35
2023-02-09T06:49:26.902Z,9.40
2023-02-09T06:51:54.465Z,8.73
2023-02-09T06:54:22.184Z,10.20
2023-02-09T06:56:49.486Z,9.93
2023-02-09T06:59:16.807Z,8.85
2023-02-09T07:01:44.306Z,8.50
2023-02-09T07:04:11.545Z,7.97
2023-02-09T07:06:38.851Z,7.90
2023-02-09T07:09:06.100Z,8.10
2023-02-09T07:11:33.372Z,8.38
2023-02-09T07:14:00.635Z,9.10
2023-02-09T07:16:28.027Z,7.00
2023-02-09T07:18:55.453Z,7.22
2023-02-09T07:21:22.906Z,8.23
2023-02-09T07:23:50.182Z,7.95
2023-02-09T07:26:18.819Z,8.15
2023-02-09T07:28:46.358Z,9.20
2023-02-09T07:31:15.937Z,9.70
2023-02-09T07:33:43.544Z,10.65
2023-02-09T07:36:12.707Z,10.25
2023-02-09T07:38:40.582Z,9.15
2023-02-09T07:41:12.868Z,8.98
2023-02-09T07:43:40.305Z,9.00
2023-02-09T07:46:08.047Z,8.25
2023-02-09T07:48:36.557Z,9.23
2023-02-09T07:51:04.243Z,8.43
2023-02-09T07:53:31.918Z,8.68
2023-02-09T07:55:59.315Z,8.65
2023-02-09T07:58:26.636Z,8.60
2023-02-09T08:00:54.108Z,8.80
2023-02-09T08:03:23.994Z,9.82
2023-02-09T08:06:03.222Z,8.73
2023-02-09T08:08:30.587Z,8.85
2023-02-09T08:11:01.221Z,9.40
2023-02-09T08:13:33.877Z,8.90
2023-02-09T08:16:05.060Z,8.73
2023-02-09T08:18:40.060Z,8.82
2023-02-09T08:21:11.457Z,8.18
2023-02-09T08:23:41.218Z,8.32
2023-02-09T08:26:11.554Z,7.63
2023-02-09T08:28:45.087Z,9.32
2023-02-09T08:31:15.913Z,8.82
2023-02-09T08:33:44.564Z,9.60
2023-02-09T08:36:13.156Z,8.45
2023-02-09T08:38:41.218Z,8.88
2023-02-09T08:41:10.468Z,8.55
2023-02-09T08:43:37.951Z,10.60
2023-02-09T08:46:10.779Z,9.50
2023-02-09T08:48:41.451Z,9.38
2023-02-09T08:51:10.427Z,8.80
2023-02-09T08:53:37.652Z,8.55
2023-02-09T08:56:05.865Z,7.43
2023-02-09T08:58:33.574Z,7.97
2023-02-09T09:01:01.227Z,9.52
2023-02-09T09:03:31.750Z,8.40
2023-02-09T09:06:04.760Z,7.97
2023-02-09T09:08:34.012Z,8.23
2023-02-09T09:11:01.845Z,8.13
2023-02-09T09:13:29.896Z,7.97
2023-02-09T09:15:57.205Z,8.35
2023-02-09T09:18:25.892Z,7.38
2023-02-09T09:20:53.448Z,8.60
2023-02-09T09:23:21.385Z,9.07
2023-02-09T09:25:49.123Z,8.40
2023-02-09T09:28:16.730Z,8.27
2023-02-09T09:30:44.154Z,8.90
2023-02-09T09:33:11.520Z,11.18
2023-02-09T09:35:38.871Z,8.60
2023-02-09T09:38:06.139Z,8.70
2023-02-09T09:40:36.017Z,8.98
2023-02-09T09:43:14.414Z,13.68
2023-02-09T09:45:41.783Z,12.38
2023-02-09T09:48:22.919Z,11.13
2023-02-09T09:50:54.114Z,10.40
2023-02-09T09:53:33.611Z,12.80
2023-02-09T09:56:05.290Z,11.52
2023-02-09T09:58:34.282Z,9.80
2023-02-09T10:01:01.698Z,14.15
2023-02-09T10:03:29.034Z,18.27
2023-02-09T10:06:01.823Z,15.85
2023-02-09T10:08:37.167Z,13.70
2023-02-09T10:11:08.808Z,12.07
2023-02-09T10:13:44.962Z,11.30
2023-02-09T10:16:27.367Z,11.65
2023-02-09T10:19:00.852Z,12.60
2023-02-09T10:21:36.449Z,12.27
2023-02-09T10:24:16.689Z,11.90
2023-02-09T10:26:43.990Z,10.43
2023-02-09T10:29:11.184Z,12.00
2023-02-09T10:31:50.553Z,11.98
2023-02-09T10:34:21.747Z,11.25
2023-02-09T10:36:52.392Z,10.63
2023-02-09T10:39:31.401Z,11.75
2023-02-09T10:42:20.690Z,10.57
2023-02-09T10:44:54.052Z,12.05
2023-02-09T10:47:21.202Z,11.93
2023-02-09T10:49:54.521Z,13.93
2023-02-09T10:52:24.506Z,11.68
2023-02-09T10:54:57.589Z,12.32
2023-02-09T10:57:29.468Z,11.60
2023-02-09T11:00:19.647Z,12.43
2023-02-09T11:02:52.831Z,10.57
2023-02-09T11:05:22.822Z,10.85
2023-02-09T11:08:14.602Z,10.90
2023-02-09T11:10:56.766Z,9.95
2023-02-09T11:13:26.289Z,9.55
2023-02-09T11:16:28.678Z,10.27
2023-02-09T11:19:09.853Z,8.73
2023-02-09T11:22:00.774Z,11.80
2023-02-09T11:25:05.266Z,9.50
2023-02-09T11:27:38.295Z,9.25
2023-02-09T11:30:42.248Z,13.27
2023-02-09T11:33:30.659Z,8.57
2023-02-09T11:36:25.293Z,8.48
2023-02-09T11:38:54.872Z,11.50
2023-02-09T11:42:07.318Z,10.75
2023-02-09T11:45:09.752Z,12.35
2023-02-09T11:47:53.806Z,12.48
2023-02-09T11:50:31.193Z,12.00
2023-02-09T11:53:13.115Z,13.90
2023-02-09T11:55:46.995Z,10.98
2023-02-09T11:58:32.854Z,12.82
2023-02-09T12:01:18.843Z,10.55
2023-02-09T12:04:05.379Z,11.35
2023-02-09T12:06:52.227Z,12.88
2023-02-09T12:09:51.578Z,10.98
2023-02-09T12:12:25.382Z,10.10
2023-02-09T12:14:56.900Z,12.15
2023-02-09T12:17:45.411Z,12.00
2023-02-09T12:20:38.832Z,11.80
2023-02-09T12:23:14.875Z,10.00
2023-02-09T12:26:01.058Z,10.57
2023-02-09T12:28:28.452Z,12.68
2023-02-09T12:30:58.602Z,14.52
2023-02-09T12:33:25.860Z,14.48
2023-02-09T12:36:04.519Z,13.60
2023-02-09T12:38:53.502Z,13.93
2023-02-09T12:41:35.021Z,14.77
2023-02-09T12:44:11.289Z,14.25
2023-02-09T12:46:44.551Z,11.80
2023-02-09T12:49:11.817Z,10.57
2023-02-09T12:51:42.018Z,10.80
2023-02-09T12:54:40.183Z,8.10
2023-02-09T12:57:16.770Z,10.55
2023-02-09T12:59:50.588Z,12.52
2023-02-09T13:02:39.708Z,10.88
2023-02-09T13:05:15.195Z,10.82
2023-02-09T13:08:11.848Z,15.57
2023-02-09T13:10:55.013Z,11.27
2023-02-09T13:13:36.431Z,14.80
2023-02-09T13:16:03.666Z,12.98
2023-02-09T13:18:56.851Z,15.00
2023-02-09T13:21:53.688Z,14.18
2023-02-09T13:24:32.956Z,11.65
2023-02-09T13:27:00.561Z,11.57
2023-02-09T13:29:31.128Z,12.52
2023-02-09T13:32:04.097Z,12.77
2023-02-09T13:35:08.510Z,12.40
2023-02-09T13:37:49.196Z,10.82
2023-02-09T13:40:30.480Z,11.45
2023-02-09T13:42:57.728Z,9.65
2023-02-09T13:45:26.873Z,9.68
2023-02-09T13:47:59.227Z,7.22
2023-02-09T13:50:28.497Z,10.48
2023-02-09T13:53:09.326Z,8.95
2023-02-09T13:55:39.970Z,10.73
2023-02-09T13:58:14.417Z,11.05
2023-02-09T14:00:45.358Z,11.63
2023-02-09T14:03:21.044Z,11.35
2023-02-09T14:06:00.425Z,8.85
2023-02-09T14:08:30.031Z,8.85
2023-02-09T14:11:22.975Z,9.32
2023-02-09T14:13:58.684Z,8.93
2023-02-09T14:16:28.138Z,10.10
2023-02-09T14:18:57.881Z,8.25
2023-02-09T14:21:28.613Z,8.82
2023-02-09T14:23:58.851Z,8.98
2023-02-09T14:26:27.697Z,9.27
2023-02-09T14:29:25.629Z,7.78
2023-02-09T14:31:55.738Z,7.18
2023-02-09T14:34:30.485Z,6.55
2023-02-09T14:37:11.524Z,9.02
2023-02-09T14:40:06.266Z,6.60
2023-02-09T14:42:39.380Z,8.13
2023-02-09T14:45:15.954Z,5.65
2023-02-09T14:47:44.726Z,6.38
2023-02-09T14:50:23.549Z,4.90
2023-02-09T14:53:06.006Z,5.75
2023-02-09T14:55:40.251Z,7.63
2023-02-09T14:58:21.173Z,5.13
2023-02-09T15:00:49.546Z,4.70
2023-02-09T15:03:16.834Z,4.68
2023-02-09T15:05:44.796Z,4.40
2023-02-09T15:08:17.884Z,4.13
2023-02-09T15:10:48.801Z,4.15
2023-02-09T15:13:16.854Z,4.18
2023-02-09T15:15:44.476Z,3.33
2023-02-09T15:18:19.851Z,2.42
2023-02-09T15:20:47.479Z,1.20
2023-02-09T15:23:14.898Z,1.50
2023-02-09T15:25:42.597Z,1.00
2023-02-09T15:28:31.036Z,1.08
2023-02-09T15:30:59.970Z,0.70
2023-02-09T15:33:29.359Z,0.80
2023-02-09T15:35:58.891Z,0.95
2023-02-09T15:38:27.756Z,1.20
2023-02-09T15:41:13.595Z,0.70
2023-02-09T15:43:59.997Z,0.80
2023-02-09T15:46:46.030Z,0.80
2023-02-09T15:49:13.273Z,0.77
2023-02-09T15:51:41.196Z,0.90
2023-02-09T15:54:20.514Z,0.50
2023-02-09T15:56:48.093Z,0.70
2023-02-09T15:59:21.373Z,1.27
2023-02-09T16:01:49.687Z,0.60
2023-02-09T16:04:16.993Z,0.82
2023-02-09T16:06:48.567Z,0.82
2023-02-09T16:09:20.973Z,0.63
2023-02-09T16:11:48.693Z,0.70
2023-02-09T16:14:20.532Z,0.95
2023-02-09T16:16:48.519Z,1.00
2023-02-09T16:19:17.042Z,0.80
2023-02-09T16:21:48.978Z,2.25
2023-02-09T16:24:38.614Z,1.05
2023-02-09T16:27:17.826Z,1.02
2023-02-09T16:29:45.117Z,1.23
2023-02-09T16:32:18.766Z,2.33
2023-02-09T16:34:46.368Z,1.65
2023-02-09T16:37:16.121Z,1.60
2023-02-09T16:39:43.616Z,1.55
2023-02-09T16:42:15.993Z,1.70
2023-02-09T16:44:43.209Z,1.42
2023-02-09T16:47:21.279Z,1.20
2023-02-09T16:50:00.545Z,1.33
2023-02-09T16:52:30.432Z,1.10
2023-02-09T16:55:00.074Z,1.17
2023-02-09T16:57:28.667Z,1.23
2023-02-09T16:59:56.366Z,1.00
2023-02-09T17:02:43.672Z,1.10
2023-02-09T17:05:18.764Z,0.80
2023-02-09T17:07:54.809Z,1.10
2023-02-09T17:10:27.595Z,0.98
2023-02-09T17:12:55.008Z,0.93
2023-02-09T17:15:30.697Z,1.02
2023-02-09T17:18:04.682Z,1.52
2023-02-09T17:20:44.223Z,1.30
2023-02-09T17:23:24.039Z,1.10
2023-02-09T17:25:55.092Z,1.10
2023-02-09T17:28:23.770Z,0.95
2023-02-09T17:30:55.416Z,1.10
2023-02-09T17:33:25.631Z,2.03
2023-02-09T17:36:22.819Z,1.30
2023-02-09T17:38:42.141Z,1.50
2023-02-09T17:41:18.519Z,2.80
2023-02-09T17:43:46.350Z,2.10
2023-02-09T17:46:16.517Z,2.38
2023-02-09T17:48:43.794Z,2.22
2023-02-09T17:51:30.956Z,1.63
2023-02-09T17:53:58.446Z,2.35
2023-02-09T17:56:26.055Z,2.10
2023-02-09T17:58:53.425Z,1.50
2023-02-09T18:01:25.295Z,2.00
2023-02-09T18:03:59.138Z,2.03
2023-02-09T18:06:36.219Z,1.55
2023-02-09T18:09:07.658Z,2.58
2023-02-09T18:11:58.843Z,2.53
2023-02-09T18:14:27.238Z,3.38
2023-02-09T18:16:55.307Z,1.85
2023-02-09T18:19:24.100Z,1.50
2023-02-09T18:21:53.794Z,1.90
2023-02-09T18:24:23.047Z,1.90
2023-02-09T18:26:51.243Z,1.42
2023-02-09T18:29:23.706Z,1.25
2023-02-09T18:31:51.737Z,2.05
2023-02-09T18:34:19.035Z,1.38
2023-02-09T18:36:46.343Z,2.05
2023-02-09T18:39:15.500Z,1.88
2023-02-09T18:41:43.823Z,3.97
2023-02-09T18:44:11.065Z,2.47
2023-02-09T18:46:38.375Z,2.40
2023-02-09T18:49:05.599Z,3.47
2023-02-09T18:51:32.762Z,2.92
2023-02-09T18:54:00.360Z,3.75
2023-02-09T18:56:28.614Z,3.22
2023-02-09T18:58:55.886Z,3.40
2023-02-09T19:01:24.376Z,2.92
2023-02-09T19:03:54.551Z,2.75
2023-02-09T19:06:22.481Z,3.15
2023-02-09T19:08:50.527Z,2.78
2023-02-09T19:11:20.120Z,2.63
2023-02-09T19:14:07.727Z,2.65
2023-02-09T19:16:36.780Z,3.58
2023-02-09T19:19:04.407Z,3.67
2023-02-09T19:21:32.362Z,3.60
2023-02-09T19:23:59.630Z,3.33
2023-02-09T19:26:26.912Z,3.35
2023-02-09T19:28:57.158Z,2.60
2023-02-09T19:31:25.104Z,3.15
2023-02-09T19:33:56.916Z,3.17
2023-02-09T19:36:25.280Z,3.75
2023-02-09T19:38:52.636Z,3.75
2023-02-09T19:41:23.289Z,4.30
2023-02-09T19:43:55.912Z,3.30
2023-02-09T19:46:24.172Z,3.55
2023-02-09T19:48:53.845Z,3.13
2023-02-09T19:51:22.125Z,3.70
2023-02-09T19:53:50.021Z,3.28
2023-02-09T19:56:20.776Z,3.58
2023-02-09T19:58:48.091Z,3.67
2023-02-09T20:01:15.917Z,3.95
2023-02-09T20:03:43.199Z,3.13
2023-02-09T20:06:13.632Z,3.67
2023-02-09T20:08:41.256Z,4.22
2023-02-09T20:11:15.338Z,4.60
2023-02-09T20:13:42.643Z,4.18
2023-02-09T20:16:19.089Z,4.95
2023-02-09T20:18:49.072Z,4.68
2023-02-09T20:21:18.473Z,4.57
2023-02-09T20:23:46.795Z,5.03
2023-02-09T20:26:23.663Z,4.45
2023-02-09T20:28:53.223Z,5.53
2023-02-09T20:31:25.568Z,5.15
2023-02-09T20:33:55.117Z,5.38
2023-02-09T20:36:24.487Z,4.88
2023-02-09T20:38:53.354Z,4.47
2023-02-09T20:41:21.085Z,5.57
2023-02-09T20:44:07.326Z,6.07
2023-02-09T20:46:53.970Z,6.07
2023-02-09T20:49:22.808Z,5.70
2023-02-09T20:51:50.075Z,5.53
2023-02-09T20:54:17.383Z,5.78
2023-02-09T20:56:44.713Z,6.13
2023-02-09T20:59:13.579Z,5.10
2023-02-09T21:01:41.894Z,5.45
2023-02-09T21:04:09.736Z,6.40
2023-02-09T21:06:37.970Z,5.43
2023-02-09T21:09:06.397Z,5.78
2023-02-09T21:11:34.323Z,5.78
2023-02-09T21:14:01.655Z,6.50
2023-02-09T21:16:29.523Z,5.82
2023-02-09T21:18:57.545Z,6.93
2023-02-09T21:21:27.076Z,6.88
2023-02-09T21:23:54.839Z,5.63
2023-02-09T21:26:24.517Z,6.25
2023-02-09T21:28:56.247Z,6.65
2023-02-09T21:31:26.412Z,5.90
2023-02-09T21:33:53.660Z,6.00
2023-02-09T21:36:21.223Z,5.82
2023-02-09T21:38:48.638Z,6.18
2023-02-09T21:41:41.087Z,7.63
2023-02-09T21:44:15.899Z,6.05
2023-02-09T21:49:14.505Z,6.35
2023-02-09T21:51:42.484Z,6.13
2023-02-09T21:54:14.538Z,6.70
2023-02-09T21:56:42.643Z,6.18
2023-02-09T21:59:10.451Z,6.22
2023-02-09T22:01:38.254Z,6.45
2023-02-09T22:04:05.577Z,7.38
2023-02-09T22:06:32.871Z,5.93
2023-02-09T22:09:03.807Z,6.72
2023-02-09T22:11:30.999Z,6.53
2023-02-09T22:13:58.299Z,6.35
2023-02-09T22:16:26.019Z,5.68
2023-02-09T22:18:53.344Z,7.63
2023-02-09T22:21:20.869Z,5.65
2023-02-09T22:23:48.492Z,6.63
2023-02-09T22:26:15.847Z,5.93
2023-02-09T22:28:43.499Z,6.10
2023-02-09T22:31:16.814Z,5.70
2023-02-09T22:33:44.752Z,5.93
2023-02-09T22:36:15.885Z,5.53
2023-02-09T22:38:44.878Z,6.28
2023-02-09T22:41:24.121Z,5.63
2023-02-09T22:43:58.676Z,6.95
2023-02-09T22:46:31.740Z,6.30
2023-02-09T22:49:01.297Z,5.90
2023-02-09T22:51:30.908Z,5.35
2023-02-09T22:53:59.477Z,7.00
2023-02-09T22:56:28.046Z,6.93
2023-02-09T22:58:59.426Z,6.97
2023-02-09T23:01:27.894Z,6.28
2023-02-09T23:03:55.281Z,6.85
2023-02-09T23:06:24.753Z,6.35
2023-02-09T23:08:53.921Z,6.82
2023-02-09T23:11:21.699Z,7.35
2023-02-09T23:13:51.091Z,6.18
2023-02-09T23:16:28.318Z,6.90
2023-02-09T23:18:56.947Z,6.82
2023-02-09T23:21:30.688Z,6.75
2023-02-09T23:23:58.625Z,7.63
2023-02-09T23:26:26.781Z,6.63
2023-02-09T23:28:57.225Z,6.72
2023-02-09T23:31:25.070Z,6.07
2023-02-09T23:33:52.370Z,6.72
2023-02-09T23:36:25.464Z,6.47
2023-02-09T23:39:00.959Z,6.88
2023-02-09T23:41:28.765Z,6.90
2023-02-09T23:43:56.984Z,6.30
2023-02-09T23:46:28.634Z,6.47
2023-02-09T23:48:56.816Z,6.22
2023-02-09T23:51:29.947Z,5.82
2023-02-09T23:53:59.884Z,6.90
2023-02-09T23:56:28.009Z,6.82
2023-02-09T23:58:55.960Z,6.40
